Mount Gravatt, Queensland

5:57 PM AEST on May 07, 2015 (GMT +1000)
Sunnybank | | Change Station
CLOSE
Current Station
Personal Weather Station
Location: Sunnybank, QUEENSLAND
Elevation: 135 ft
Nearby Weather Stations

Elev 135 ft 27.58 °S, 153.05 °E | Updated 1 minute ago

Partly Cloudy
Partly Cloudy
70.2 °F
Feels Like 73 °F
N
0.0
Wind Variable Wind from SSE
Gusts 2.0 mph

Today
High -- | Low -- °F
--% Chance of Precip.
Yesterday
High -- | Low -- °F
Precip. -- in
6:16 AM 5:12 PM
Waning Gibbous, 89% visible
Pressure 29.98 in
Visibility 6.2 miles
Clouds Few 2800 ft
Heat Index 73 °F
Dew Point 61 °F
Humidity 72%
Rainfall 0.00 in
Snow Depth Not available.
UV 0 out of 12
Pollen Not available.
Air Quality Not available.
Flu Activity Not available.
METAR YBBN 070730Z 13006KT 9999 FEW028 21/16 Q1015

More Conditions Fewer Conditions

Pressure 29.98 in
Visibility 6.2 miles
Clouds Few 2800 ft
Heat Index 73 °F
Dew Point 61 °F
Humidity 72%
Rainfall 0.00 in
Snow Depth Not available.
UV 0 out of 12
Pollen Not available.
Air Quality Not available.
Flu Activity Not available.
METAR YBBN 070730Z 13006KT 9999 FEW028 21/16 Q1015

More Conditions Fewer Conditions

10-Day Weather Forecast

Almanac

Astronomy

May. 07, 2015 Rise Set
Actual Time
Civil Twilight
Nautical Twilight
Astronomical Twilight
Moon
Length of Visible Light
Length of Day
Tomorrow will be .
, % of the Moon is Illuminated

Today's Extremes

Country Highs Country Lows

Community

WunderPhotos

Upload Photos

1,819,126 photos uploaded!

WunderBlogs® & News

Nearby

Air Quality

  Air Quality AQ Index Pollutant
Not available.

Snow Depth

Station Depth Elevation

Earthquake Activity

City Distance Mag. Time & Date
Minimum magnitude displayed is 2.5.

Coastal Water Temperatures

Place Temperature

Stations

Nearby Weather Stations

Station Location Temp. Windchill Dew Point Humidity Wind Precip. Elev Updated Type